Map

Track Data

SID SEASON NUMBER BASIN SUBBASIN NAME ISO_TIME NATURE LAT LON WMO_WIND WMO_PRES WMO_AGENCY TRACK_TYPE DIST2LAND LANDFALL IFLAG USA_AGENCY USA_ATCF_ID USA_LAT USA_LON USA_RECORD USA_STATUS USA_WIND USA_PRES USA_SSHS USA_R34_NE USA_R34_SE USA_R34_SW USA_R34_NW USA_R50_NE USA_R50_SE USA_R50_SW USA_R50_NW USA_R64_NE USA_R64_SE USA_R64_SW USA_R64_NW USA_POCI USA_ROCI USA_RMW USA_EYE TOKYO_LAT TOKYO_LON TOKYO_GRADE TOKYO_WIND TOKYO_PRES TOKYO_R50_DIR TOKYO_R50_LONG TOKYO_R50_SHORT TOKYO_R30_DIR TOKYO_R30_LONG TOKYO_R30_SHORT TOKYO_LAND CMA_LAT CMA_LON CMA_CAT CMA_WIND CMA_PRES HKO_LAT HKO_LON HKO_CAT HKO_WIND HKO_PRES NEWDELHI_LAT NEWDELHI_LON NEWDELHI_GRADE NEWDELHI_WIND NEWDELHI_PRES NEWDELHI_CI NEWDELHI_DP NEWDELHI_POCI REUNION_LAT REUNION_LON REUNION_TYPE REUNION_WIND REUNION_PRES REUNION_TNUM REUNION_CI REUNION_RMW REUNION_R34_NE REUNION_R34_SE REUNION_R34_SW REUNION_R34_NW REUNION_R50_NE REUNION_R50_SE REUNION_R50_SW REUNION_R50_NW REUNION_R64_NE REUNION_R64_SE REUNION_R64_SW REUNION_R64_NW BOM_LAT BOM_LON BOM_TYPE BOM_WIND BOM_PRES BOM_TNUM BOM_CI BOM_RMW BOM_R34_NE BOM_R34_SE BOM_R34_SW BOM_R34_NW BOM_R50_NE BOM_R50_SE BOM_R50_SW BOM_R50_NW BOM_R64_NE BOM_R64_SE BOM_R64_SW BOM_R64_NW BOM_ROCI BOM_POCI BOM_EYE BOM_POS_METHOD BOM_PRES_METHOD NADI_LAT NADI_LON NADI_CAT NADI_WIND NADI_PRES WELLINGTON_LAT WELLINGTON_LON WELLINGTON_WIND WELLINGTON_PRES DS824_LAT DS824_LON DS824_STAGE DS824_WIND DS824_PRES TD9636_LAT TD9636_LON TD9636_STAGE TD9636_WIND TD9636_PRES TD9635_LAT TD9635_LON TD9635_WIND TD9635_PRES TD9635_ROCI NEUMANN_LAT NEUMANN_LON NEUMANN_CLASS NEUMANN_WIND NEUMANN_PRES MLC_LAT MLC_LON MLC_CLASS MLC_WIND MLC_PRES USA_GUST BOM_GUST BOM_GUST_PER REUNION_GUST REUNION_GUST_PER USA_SEAHGT USA_SEARAD_NE USA_SEARAD_SE USA_SEARAD_SW USA_SEARAD_NW STORM_SPEED STORM_DIR
1887277N19134 1887 58 WP MM NOT_NAMED 1887-10-04 04:00:00 NR 18.7000 133.800 main 1137 1124 __________O___ -1 18.7000 133.800 4 9 314
1887277N19134 1887 58 WP MM NOT_NAMED 1887-10-04 06:00:00 NR 18.8978 133.585 main 1129 1112 __________P___ -1 18.8978 133.585 4 8 314
1887277N19134 1887 58 WP MM NOT_NAMED 1887-10-04 09:00:00 NR 19.1889 133.267 main 1118 1103 __________P___ -1 19.1889 133.267 4 8 314
1887277N19134 1887 58 WP MM NOT_NAMED 1887-10-04 12:00:00 NR 19.4660 132.964 main 1109 1096 __________P___ -1 19.4660 132.964 4 8 314
1887277N19134 1887 58 WP MM NOT_NAMED 1887-10-04 15:00:00 NR 19.7212 132.686 main 1096 1093 __________P___ -1 19.7212 132.686 4 7 314
1887277N19134 1887 58 WP MM NOT_NAMED 1887-10-04 16:00:00 NR 19.8000 132.600 main 1093 1073 __________O___ -1 19.8000 132.600 4 6 314
1887277N19134 1887 58 WP MM NOT_NAMED 1887-10-04 18:00:00 NR 19.9476 132.440 main 1073 1056 __________P___ -1 19.9476 132.440 4 6 315
1887277N19134 1887 58 WP MM NOT_NAMED 1887-10-04 21:00:00 NR 20.1501 132.220 main 1058 1039 __________P___ -1 20.1501 132.220 4 6 314
1887277N19134 1887 58 WP MM NOT_NAMED 1887-10-05 00:00:00 NR 20.3413 132.007 main 1039 1023 __________P___ -1 20.3413 132.007 4 6 313
1887277N19134 1887 58 WP MM NOT_NAMED 1887-10-05 03:00:00 NR 20.5335 131.781 main 1023 1015 __________P___ -1 20.5335 131.781 4 6 312
1887277N19134 1887 58 WP MM NOT_NAMED 1887-10-05 04:00:00 NR 20.6000 131.700 main 1015 997 __________O___ -1 20.6000 131.700 4 6 308
1887277N19134 1887 58 WP MM NOT_NAMED 1887-10-05 06:00:00 NR 20.7286 131.514 main 997 972 __________P___ -1 20.7286 131.514 4 7 306
1887277N19134 1887 58 WP MM NOT_NAMED 1887-10-05 09:00:00 NR 20.9274 131.217 main 972 949 __________P___ -1 20.9274 131.217 4 7 306
1887277N19134 1887 58 WP MM NOT_NAMED 1887-10-05 12:00:00 NR 21.1472 130.908 main 949 930 __________P___ -1 21.1472 130.908 4 7 310
1887277N19134 1887 58 WP MM NOT_NAMED 1887-10-05 15:00:00 NR 21.4037 130.600 main 930 924 __________P___ -1 21.4037 130.600 4 8 313
1887277N19134 1887 58 WP MM NOT_NAMED 1887-10-05 16:00:00 NR 21.5000 130.500 main 924 913 __________O___ -1 21.5000 130.500 4 9 317
1887277N19134 1887 58 WP MM NOT_NAMED 1887-10-05 18:00:00 NR 21.7185 130.285 main 913 869 __________P___ -1 21.7185 130.285 4 9 320
1887277N19134 1887 58 WP MM NOT_NAMED 1887-10-05 21:00:00 NR 22.0841 129.969 main 869 825 __________P___ -1 22.0841 129.969 4 9 324
1887277N19134 1887 58 WP MM NOT_NAMED 1887-10-06 00:00:00 NR 22.4755 129.683 main 825 793 __________P___ -1 22.4755 129.683 4 9 329
1887277N19134 1887 58 WP MM NOT_NAMED 1887-10-06 03:00:00 NR 22.8710 129.457 main 793 781 __________P___ -1 22.8710 129.457 4 9 333
1887277N19134 1887 58 WP MM NOT_NAMED 1887-10-06 04:00:00 NR 23.0000 129.400 main 781 765 __________O___ -1 23.0000 129.400 4 8 339
1887277N19134 1887 58 WP MM NOT_NAMED 1887-10-06 06:00:00 NR 23.2309 129.308 main 765 745 __________P___ -1 23.2309 129.308 4 7 345
1887277N19134 1887 58 WP MM NOT_NAMED 1887-10-06 09:00:00 NR 23.5710 129.232 main 745 738 __________P___ -1 23.5710 129.232 4 7 353
1887277N19134 1887 58 WP MM NOT_NAMED 1887-10-06 12:00:00 NR 23.9147 129.224 main 738 732 __________P___ -1 23.9147 129.224 4 7 3
1887277N19134 1887 58 WP MM NOT_NAMED 1887-10-06 15:00:00 NR 24.2744 129.273 main 741 739 __________P___ -1 24.2744 129.273 4 7 7
1887277N19134 1887 58 WP MM NOT_NAMED 1887-10-06 16:00:00 NR 24.4000 129.300 main 739 714 __________O___ -1 24.4000 129.300 4 8 13
1887277N19134 1887 58 WP MM NOT_NAMED 1887-10-06 18:00:00 NR 24.6614 129.369 main 714 669 __________P___ -1 24.6614 129.369 4 8 15
1887277N19134 1887 58 WP MM NOT_NAMED 1887-10-06 21:00:00 NR 25.0753 129.503 main 669 621 __________P___ -1 25.0753 129.503 4 9 17
1887277N19134 1887 58 WP MM NOT_NAMED 1887-10-07 00:00:00 NR 25.5080 129.663 main 621 565 __________P___ -1 25.5080 129.663 4 9 19
1887277N19134 1887 58 WP MM NOT_NAMED 1887-10-07 03:00:00 NR 25.9513 129.840 main 565 552 __________P___ -1 25.9513 129.840 4 9 20
1887277N19134 1887 58 WP MM NOT_NAMED 1887-10-07 04:00:00 NR 26.1000 129.900 main 552 __________O___ -1 26.1000 129.900 7 10 20

Digital Typhoon Data and Search

About IBTrACS Database

This database is a web-friendly format of International Best Track Archive for Climate Stewardship (IBTrACS), a global best track data archive curated by NOAA dating back to 1842.

Updated: 2021-11-26